Terminal Aerodrome Forecast
Issued by NWS Omaha/Valley, NE

Home | Current Version | Previous Version | Text Only | Print | Product List | Glossary Off
Versions: 1 2 3 4 5 6 7 8 9 10 11 12 13 14 15 16 17 18 19 20 21 22 23 24 25 26 27 28 29 30 31 32 33 34 35 36 37 38 39 40 41 42 43

000
FTUS43 KOAX 241720
TAFOFK
TAF
KOFK 241720Z 2418/2518 32020G31KT P6SM FEW025
     FM250000 32014KT P6SM SKC
     FM250400 29005KT P6SM SKC
     FM251300 21009KT P6SM SCT030=

USA.gov is the U.S. government's official web portal to all federal, state and local government web resources and services.